createdAt,value
2018-04-18T00:01:30.691Z,6.33
2018-04-18T00:03:58.266Z,5.47
2018-04-18T00:06:25.826Z,5.70
2018-04-18T00:08:53.351Z,5.67
2018-04-18T00:11:20.932Z,5.20
2018-04-18T00:13:48.583Z,5.50
2018-04-18T00:16:16.147Z,5.22
2018-04-18T00:18:43.690Z,5.28
2018-04-18T00:21:11.237Z,5.30
2018-04-18T00:23:38.821Z,4.90
2018-04-18T00:26:06.389Z,5.10
2018-04-18T00:28:33.916Z,5.30
2018-04-18T00:31:01.499Z,4.43
2018-04-18T00:33:29.062Z,4.67
2018-04-18T00:35:56.727Z,4.37
2018-04-18T00:38:24.280Z,4.10
2018-04-18T00:40:51.797Z,4.37
2018-04-18T00:43:19.457Z,4.03
2018-04-18T00:45:47.062Z,4.20
2018-04-18T00:48:14.637Z,4.10
2018-04-18T00:50:42.291Z,4.37
2018-04-18T00:53:09.843Z,3.97
2018-04-18T00:55:37.405Z,4.40
2018-04-18T00:58:04.997Z,4.57
2018-04-18T01:00:35.011Z,4.10
2018-04-18T01:03:03.254Z,4.75
2018-04-18T01:05:30.806Z,5.43
2018-04-18T01:07:58.385Z,4.83
2018-04-18T01:10:25.912Z,5.10
2018-04-18T01:12:53.506Z,5.47
2018-04-18T01:15:21.038Z,5.47
2018-04-18T01:17:48.611Z,4.85
2018-04-18T01:20:16.142Z,5.47
2018-04-18T01:22:43.669Z,5.63
2018-04-18T01:25:11.238Z,4.85
2018-04-18T01:27:38.771Z,5.32
2018-04-18T01:30:06.421Z,4.60
2018-04-18T01:32:33.980Z,4.50
2018-04-18T01:35:01.549Z,4.90
2018-04-18T01:37:29.082Z,4.63
2018-04-18T01:39:56.635Z,5.10
2018-04-18T01:42:24.161Z,4.83
2018-04-18T01:44:51.738Z,5.33
2018-04-18T01:47:19.330Z,5.00
2018-04-18T01:49:46.996Z,5.13
2018-04-18T01:52:14.552Z,5.37
2018-04-18T01:54:42.074Z,4.85
2018-04-18T01:57:09.625Z,5.37
2018-04-18T01:59:37.152Z,4.82
2018-04-18T02:02:04.706Z,5.23
2018-04-18T02:04:32.260Z,5.68
2018-04-18T02:06:59.810Z,5.47
2018-04-18T02:09:27.339Z,4.63
2018-04-18T02:11:54.885Z,5.23
2018-04-18T02:14:22.416Z,4.50
2018-04-18T02:16:49.967Z,4.63
2018-04-18T02:19:17.538Z,4.65
2018-04-18T02:21:45.168Z,4.43
2018-04-18T02:24:12.700Z,5.13
2018-04-18T02:26:40.279Z,5.20
2018-04-18T02:29:07.830Z,5.00
2018-04-18T02:31:35.380Z,5.50
2018-04-18T02:34:02.984Z,4.90
2018-04-18T02:36:30.536Z,4.53
2018-04-18T02:38:58.088Z,4.90
2018-04-18T02:41:25.640Z,5.10
2018-04-18T02:43:53.298Z,4.93
2018-04-18T02:46:20.817Z,4.80
2018-04-18T02:48:48.369Z,4.68
2018-04-18T02:51:15.976Z,5.20
2018-04-18T02:53:43.549Z,5.43
2018-04-18T02:56:11.078Z,4.57
2018-04-18T02:58:38.653Z,4.87
2018-04-18T03:01:06.214Z,5.00
2018-04-18T03:03:34.558Z,4.82
2018-04-18T03:06:02.144Z,5.00
2018-04-18T03:08:29.687Z,5.40
2018-04-18T03:10:57.271Z,4.77
2018-04-18T03:13:24.830Z,5.10
2018-04-18T03:15:52.393Z,4.18
2018-04-18T03:18:19.918Z,5.10
2018-04-18T03:20:47.501Z,4.28
2018-04-18T03:23:15.026Z,4.07
2018-04-18T03:25:42.597Z,5.45
2018-04-18T03:28:10.133Z,4.97
2018-04-18T03:30:37.714Z,6.47
2018-04-18T03:33:05.289Z,6.37
2018-04-18T03:35:32.801Z,5.40
2018-04-18T03:38:00.441Z,5.90
2018-04-18T03:40:27.965Z,5.37
2018-04-18T03:42:55.677Z,5.25
2018-04-18T03:45:23.197Z,5.97
2018-04-18T03:47:50.746Z,5.43
2018-04-18T03:50:18.277Z,5.70
2018-04-18T03:52:45.900Z,6.00
2018-04-18T03:55:13.456Z,6.27
2018-04-18T03:57:41.110Z,6.35
2018-04-18T04:00:08.633Z,6.37
2018-04-18T04:02:37.238Z,5.80
2018-04-18T04:05:04.790Z,6.03
2018-04-18T04:07:32.370Z,6.30
2018-04-18T04:09:59.935Z,6.50
2018-04-18T04:12:27.454Z,6.07
2018-04-18T04:14:55.026Z,5.80
2018-04-18T04:17:34.455Z,6.20
2018-04-18T04:20:13.879Z,5.93
2018-04-18T04:22:53.340Z,6.35
2018-04-18T04:25:20.929Z,6.23
2018-04-18T04:27:48.486Z,6.20
2018-04-18T04:30:16.941Z,5.47
2018-04-18T04:32:44.521Z,5.95
2018-04-18T04:35:12.094Z,5.90
2018-04-18T04:37:39.613Z,5.70
2018-04-18T04:40:07.756Z,5.93
2018-04-18T04:42:35.377Z,5.70
2018-04-18T04:45:02.959Z,6.13
2018-04-18T04:47:30.606Z,5.73
2018-04-18T04:49:58.164Z,6.57
2018-04-18T04:52:25.820Z,5.37
2018-04-18T04:54:53.363Z,5.73
2018-04-18T04:57:20.918Z,5.37
2018-04-18T04:59:48.466Z,5.23
2018-04-18T05:02:16.058Z,5.00
2018-04-18T05:04:43.621Z,5.47
2018-04-18T05:07:11.872Z,5.90
2018-04-18T05:09:40.990Z,5.40
2018-04-18T05:12:08.831Z,6.10
2018-04-18T05:14:37.756Z,5.50
2018-04-18T05:17:07.699Z,5.87
2018-04-18T05:19:38.134Z,6.53
2018-04-18T05:22:09.654Z,5.85
2018-04-18T05:24:40.539Z,6.40
2018-04-18T05:27:11.730Z,6.30
2018-04-18T05:29:42.046Z,7.03
2018-04-18T05:32:10.017Z,6.90
2018-04-18T05:34:37.989Z,7.40
2018-04-18T05:37:06.405Z,7.97
2018-04-18T05:39:34.031Z,6.50
2018-04-18T05:42:02.069Z,7.40
2018-04-18T05:44:30.275Z,7.53
2018-04-18T05:46:57.986Z,7.03
2018-04-18T05:49:25.514Z,6.47
2018-04-18T05:51:53.315Z,6.20
2018-04-18T05:54:21.193Z,9.52
2018-04-18T05:56:51.820Z,13.20
2018-04-18T05:59:19.466Z,14.57
2018-04-18T06:01:47.024Z,12.55
2018-04-18T06:04:14.577Z,10.90
2018-04-18T06:06:42.200Z,28.12
2018-04-18T06:09:09.734Z,20.97
2018-04-18T06:11:38.088Z,9.18
2018-04-18T06:14:05.666Z,7.17
2018-04-18T06:16:33.187Z,5.93
2018-04-18T06:19:00.745Z,6.43
2018-04-18T06:21:28.270Z,7.17
2018-04-18T06:23:55.945Z,6.47
2018-04-18T06:26:23.473Z,6.37
2018-04-18T06:28:51.055Z,6.53
2018-04-18T06:31:18.600Z,6.77
2018-04-18T06:33:46.178Z,7.13
2018-04-18T06:36:13.709Z,6.15
2018-04-18T06:38:41.557Z,6.60
2018-04-18T06:41:09.747Z,6.77
2018-04-18T06:43:37.331Z,6.33
2018-04-18T06:46:04.866Z,6.47
2018-04-18T06:48:32.668Z,6.47
2018-04-18T06:51:00.320Z,6.50
2018-04-18T06:53:27.902Z,6.33
2018-04-18T06:55:55.442Z,6.37
2018-04-18T06:58:23.005Z,5.77
2018-04-18T07:00:50.554Z,5.30
2018-04-18T07:03:18.154Z,5.43
2018-04-18T07:05:45.766Z,4.90
2018-04-18T07:08:13.362Z,5.27
2018-04-18T07:10:40.887Z,5.40
2018-04-18T07:13:08.441Z,5.10
2018-04-18T07:15:36.019Z,5.23
2018-04-18T07:18:03.690Z,5.50
2018-04-18T07:20:31.221Z,5.57
2018-04-18T07:22:58.773Z,5.20
2018-04-18T07:25:26.361Z,5.63
2018-04-18T07:27:54.026Z,5.47
2018-04-18T07:30:21.559Z,5.10
2018-04-18T07:32:49.137Z,4.57
2018-04-18T07:35:16.712Z,6.57
2018-04-18T07:37:44.363Z,5.57
2018-04-18T07:40:12.042Z,4.53
2018-04-18T07:42:40.408Z,5.30
2018-04-18T07:45:07.995Z,5.67
2018-04-18T07:47:35.538Z,4.80
2018-04-18T07:50:03.178Z,4.70
2018-04-18T07:52:30.705Z,4.97
2018-04-18T07:54:58.314Z,4.75
2018-04-18T07:57:25.832Z,4.05
2018-04-18T07:59:53.387Z,4.15
2018-04-18T08:02:20.935Z,4.50
2018-04-18T08:04:48.490Z,4.60
2018-04-18T08:07:16.102Z,4.40
2018-04-18T08:09:43.671Z,4.80
2018-04-18T08:12:11.650Z,4.20
2018-04-18T08:14:40.301Z,4.70
2018-04-18T08:17:09.504Z,3.80
2018-04-18T08:19:38.500Z,5.10
2018-04-18T08:22:06.628Z,4.60
2018-04-18T08:24:34.343Z,4.50
2018-04-18T08:27:02.461Z,4.50
2018-04-18T08:29:30.038Z,4.73
2018-04-18T08:31:57.813Z,4.35
2018-04-18T08:34:26.095Z,4.97
2018-04-18T08:36:54.037Z,5.40
2018-04-18T08:39:22.215Z,5.30
2018-04-18T08:41:49.969Z,5.57
2018-04-18T08:44:17.527Z,6.13
2018-04-18T08:46:45.074Z,5.70
2018-04-18T08:49:13.604Z,5.97
2018-04-18T08:51:42.459Z,5.90
2018-04-18T08:54:11.384Z,6.07
2018-04-18T08:56:39.083Z,6.30
2018-04-18T08:59:08.140Z,5.83
2018-04-18T09:01:36.490Z,6.27
2018-04-18T09:04:06.539Z,7.17
2018-04-18T09:06:36.392Z,6.63
2018-04-18T09:09:03.947Z,6.97
2018-04-18T09:11:31.600Z,6.53
2018-04-18T09:13:59.255Z,6.70
2018-04-18T09:16:26.801Z,6.83
2018-04-18T09:18:54.334Z,6.47
2018-04-18T09:21:22.150Z,6.95
2018-04-18T09:23:49.678Z,7.47
2018-04-18T09:26:17.262Z,7.67
2018-04-18T09:28:44.919Z,7.13
2018-04-18T09:31:12.482Z,8.07
2018-04-18T09:33:40.069Z,9.43
2018-04-18T09:36:07.700Z,9.23
2018-04-18T09:38:35.289Z,9.63
2018-04-18T09:41:02.827Z,9.27
2018-04-18T09:43:30.481Z,8.30
2018-04-18T09:45:58.039Z,8.80
2018-04-18T09:48:25.679Z,7.65
2018-04-18T09:50:53.262Z,8.03
2018-04-18T09:53:20.836Z,8.13
2018-04-18T09:55:48.455Z,8.07
2018-04-18T09:58:16.083Z,8.63
2018-04-18T10:00:51.557Z,7.05
2018-04-18T10:03:22.621Z,7.73
2018-04-18T10:05:50.175Z,6.00
2018-04-18T10:08:19.700Z,5.25
2018-04-18T10:10:47.602Z,6.73
2018-04-18T10:13:17.533Z,6.50
2018-04-18T10:15:45.251Z,5.73
2018-04-18T10:18:12.787Z,6.07
2018-04-18T10:20:40.338Z,5.10
2018-04-18T10:23:10.011Z,6.37
2018-04-18T10:25:37.988Z,4.77
2018-04-18T10:28:06.352Z,5.40
2018-04-18T10:30:34.795Z,4.90
2018-04-18T10:33:02.650Z,4.83
2018-04-18T10:35:30.850Z,5.90
2018-04-18T10:37:59.814Z,6.97
2018-04-18T10:40:28.859Z,6.23
2018-04-18T10:42:56.690Z,5.40
2018-04-18T10:45:26.735Z,5.33
2018-04-18T10:47:56.478Z,6.07
2018-04-18T10:50:26.195Z,5.50
2018-04-18T10:52:55.392Z,4.90
2018-04-18T10:55:25.819Z,4.03
2018-04-18T10:57:55.994Z,3.80
2018-04-18T11:00:25.619Z,2.80
2018-04-18T11:02:53.654Z,2.83
2018-04-18T11:05:21.317Z,3.60
2018-04-18T11:07:49.233Z,3.53
2018-04-18T11:10:17.412Z,3.13
2018-04-18T11:12:48.809Z,4.20
2018-04-18T11:15:16.720Z,3.17
2018-04-18T11:17:44.263Z,3.30
2018-04-18T11:20:12.618Z,3.45
2018-04-18T11:22:40.167Z,3.40
2018-04-18T11:25:07.730Z,3.73
2018-04-18T11:27:35.273Z,3.10
2018-04-18T11:30:02.853Z,3.67
2018-04-18T11:32:30.521Z,3.87
2018-04-18T11:34:58.057Z,3.72
2018-04-18T11:37:25.631Z,3.97
2018-04-18T11:39:53.169Z,4.75
2018-04-18T11:42:20.736Z,4.68
2018-04-18T11:44:48.310Z,4.65
2018-04-18T11:47:15.973Z,4.40
2018-04-18T11:49:43.543Z,4.50
2018-04-18T11:52:11.192Z,4.40
2018-04-18T11:54:38.752Z,4.30
2018-04-18T11:57:06.413Z,4.97
2018-04-18T11:59:34.203Z,4.83
2018-04-18T12:02:04.724Z,5.50
2018-04-18T12:04:32.505Z,6.10
2018-04-18T12:07:01.107Z,5.70
2018-04-18T12:09:30.185Z,5.17
2018-04-18T12:11:57.815Z,5.20
2018-04-18T12:14:27.138Z,5.18
2018-04-18T12:16:56.853Z,5.30
2018-04-18T12:19:25.025Z,4.67
2018-04-18T12:21:52.597Z,4.97
2018-04-18T12:24:21.941Z,5.00
2018-04-18T12:26:50.876Z,5.20
2018-04-18T12:29:18.921Z,5.47
2018-04-18T12:31:48.053Z,5.37
2018-04-18T12:34:15.581Z,5.97
2018-04-18T12:36:45.185Z,5.72
2018-04-18T12:39:13.712Z,5.87
2018-04-18T12:41:41.709Z,5.73
2018-04-18T12:44:14.644Z,4.77
2018-04-18T12:46:46.947Z,4.60
2018-04-18T12:49:17.607Z,5.00
2018-04-18T12:51:47.051Z,5.13
2018-04-18T12:54:15.867Z,5.07
2018-04-18T12:56:44.031Z,5.63
2018-04-18T12:59:12.354Z,5.53
2018-04-18T13:01:40.131Z,5.60
2018-04-18T13:04:08.110Z,5.27
2018-04-18T13:06:36.460Z,5.13
2018-04-18T13:09:04.226Z,5.40
2018-04-18T13:11:31.867Z,5.40
2018-04-18T13:13:59.624Z,5.83
2018-04-18T13:16:27.434Z,5.10
2018-04-18T13:18:55.771Z,4.82
2018-04-18T13:21:23.349Z,5.00
2018-04-18T13:23:51.378Z,4.23
2018-04-18T13:26:18.954Z,4.43
2018-04-18T13:28:46.505Z,4.13
2018-04-18T13:31:14.039Z,4.50
2018-04-18T13:33:41.621Z,4.37
2018-04-18T13:36:09.439Z,4.20
2018-04-18T13:38:41.093Z,4.20
2018-04-18T13:41:09.595Z,4.30
2018-04-18T13:43:37.146Z,4.43
2018-04-18T13:46:04.695Z,4.37
2018-04-18T13:48:32.379Z,3.73
2018-04-18T13:50:59.905Z,3.40
2018-04-18T13:53:27.485Z,3.33
2018-04-18T13:55:55.157Z,3.00
2018-04-18T13:58:22.891Z,2.90
2018-04-18T14:00:50.438Z,3.20
2018-04-18T14:03:17.991Z,3.10
2018-04-18T14:05:45.516Z,3.80
2018-04-18T14:08:13.687Z,3.55
2018-04-18T14:10:41.730Z,3.20
2018-04-18T14:13:09.394Z,3.00
2018-04-18T14:15:36.924Z,3.30
2018-04-18T14:18:04.481Z,3.70
2018-04-18T14:20:33.124Z,3.73
2018-04-18T14:23:00.734Z,3.22
2018-04-18T14:25:28.534Z,5.10
2018-04-18T14:27:56.086Z,2.90
2018-04-18T14:30:23.743Z,4.00
2018-04-18T14:32:51.949Z,9.00
2018-04-18T14:35:19.573Z,3.73
2018-04-18T14:37:47.247Z,9.33
2018-04-18T14:40:14.749Z,4.63
2018-04-18T14:42:42.378Z,2.80
2018-04-18T14:45:11.629Z,2.37
2018-04-18T14:47:39.198Z,2.90
2018-04-18T14:50:09.897Z,2.97
2018-04-18T14:52:37.709Z,2.03
2018-04-18T14:55:06.110Z,3.07
2018-04-18T14:57:33.670Z,2.55
2018-04-18T15:00:01.215Z,2.92
2018-04-18T15:02:28.876Z,2.00
2018-04-18T15:04:56.447Z,2.05
2018-04-18T15:07:23.970Z,2.20
2018-04-18T15:09:51.521Z,2.20
2018-04-18T15:12:19.046Z,2.03
2018-04-18T15:14:47.426Z,2.20
2018-04-18T15:17:15.479Z,2.23
2018-04-18T15:19:44.032Z,2.87
2018-04-18T15:22:11.604Z,2.83
2018-04-18T15:24:40.201Z,2.27
2018-04-18T15:27:07.805Z,2.93
2018-04-18T15:29:35.370Z,2.70
2018-04-18T15:32:02.893Z,3.37
2018-04-18T15:34:32.422Z,3.57
2018-04-18T15:37:00.105Z,3.37
2018-04-18T15:39:28.383Z,6.17
2018-04-18T15:41:55.906Z,5.22
2018-04-18T15:44:23.455Z,3.43
2018-04-18T15:46:51.104Z,6.20
2018-04-18T15:49:18.762Z,4.45
2018-04-18T15:51:46.845Z,3.70
2018-04-18T15:54:14.418Z,3.53
2018-04-18T15:56:42.193Z,4.20
2018-04-18T15:59:09.820Z,3.70
2018-04-18T16:01:37.376Z,3.70
2018-04-18T16:04:05.881Z,3.90
2018-04-18T16:06:33.523Z,4.10
2018-04-18T16:09:01.108Z,3.20
2018-04-18T16:11:32.777Z,3.93
2018-04-18T16:14:00.689Z,4.65
2018-04-18T16:16:28.257Z,4.70
2018-04-18T16:18:55.818Z,4.80
2018-04-18T16:21:23.341Z,4.50
2018-04-18T16:23:50.893Z,4.07
2018-04-18T16:26:18.423Z,4.57
2018-04-18T16:28:45.997Z,4.17
2018-04-18T16:31:13.522Z,5.05
2018-04-18T16:33:41.077Z,4.40
2018-04-18T16:36:08.605Z,4.80
2018-04-18T16:38:36.173Z,5.33
2018-04-18T16:41:03.734Z,4.97
2018-04-18T16:43:31.313Z,5.20
2018-04-18T16:45:58.887Z,5.00
2018-04-18T16:48:26.533Z,4.37
2018-04-18T16:50:54.869Z,5.10
2018-04-18T16:53:22.475Z,4.70
2018-04-18T16:55:50.021Z,4.85
2018-04-18T16:58:20.837Z,4.73
2018-04-18T17:00:48.600Z,4.20
2018-04-18T17:03:20.453Z,4.13
2018-04-18T17:05:49.790Z,4.20
2018-04-18T17:08:17.862Z,3.80
2018-04-18T17:10:46.785Z,4.13
2018-04-18T17:13:15.319Z,4.47
2018-04-18T17:15:44.771Z,3.83
2018-04-18T17:18:14.144Z,4.43
2018-04-18T17:20:45.403Z,4.20
2018-04-18T17:23:13.196Z,4.20
2018-04-18T17:25:44.843Z,4.00
2018-04-18T17:28:13.900Z,3.67
2018-04-18T17:30:43.464Z,3.97
2018-04-18T17:33:12.655Z,3.40
2018-04-18T17:35:40.369Z,3.20
2018-04-18T17:38:09.260Z,3.13
2018-04-18T17:40:37.537Z,3.50
2018-04-18T17:43:06.736Z,3.27
2018-04-18T17:45:34.511Z,3.60
2018-04-18T17:48:06.248Z,3.20
2018-04-18T17:50:34.247Z,3.42
2018-04-18T17:53:02.093Z,3.40
2018-04-18T17:55:30.982Z,4.00
2018-04-18T17:57:59.473Z,3.70
2018-04-18T18:00:29.086Z,3.33
2018-04-18T18:02:57.609Z,2.97
2018-04-18T18:05:26.188Z,3.30
2018-04-18T18:07:53.740Z,3.17
2018-04-18T18:10:23.560Z,2.63
2018-04-18T18:12:51.994Z,5.33
2018-04-18T18:15:19.753Z,5.17
2018-04-18T18:17:48.140Z,4.80
2018-04-18T18:20:16.894Z,4.27
2018-04-18T18:22:45.301Z,6.07
2018-04-18T18:25:13.796Z,7.57
2018-04-18T18:27:41.510Z,11.07
2018-04-18T18:30:09.114Z,12.82
2018-04-18T18:32:40.154Z,11.67
2018-04-18T18:35:09.110Z,10.80
2018-04-18T18:37:37.864Z,10.40
2018-04-18T18:40:07.493Z,7.50
2018-04-18T18:42:35.015Z,5.50
2018-04-18T18:45:04.392Z,4.00
2018-04-18T18:47:31.923Z,4.23
2018-04-18T18:49:59.777Z,3.50
2018-04-18T18:52:27.994Z,3.65
2018-04-18T18:54:56.481Z,4.40
2018-04-18T18:57:24.033Z,6.13
2018-04-18T18:59:51.584Z,7.10
2018-04-18T19:02:19.153Z,7.13
2018-04-18T19:04:46.816Z,6.90
2018-04-18T19:07:14.361Z,6.10
2018-04-18T19:09:41.895Z,6.03
2018-04-18T19:12:09.522Z,6.40
2018-04-18T19:14:37.053Z,6.07
2018-04-18T19:17:04.629Z,6.07
2018-04-18T19:19:32.255Z,5.82
2018-04-18T19:21:59.922Z,5.67
2018-04-18T19:24:27.708Z,6.23
2018-04-18T19:26:55.284Z,5.30
2018-04-18T19:29:23.056Z,5.70
2018-04-18T19:31:52.939Z,5.57
2018-04-18T19:34:20.490Z,5.70
2018-04-18T19:36:48.447Z,6.07
2018-04-18T19:39:16.197Z,4.90
2018-04-18T19:41:43.775Z,5.17
2018-04-18T19:44:11.302Z,4.45
2018-04-18T19:46:38.901Z,4.90
2018-04-18T19:49:06.429Z,4.33
2018-04-18T19:51:33.984Z,4.00
2018-04-18T19:54:01.535Z,4.12
2018-04-18T19:56:29.086Z,3.90
2018-04-18T19:58:56.708Z,3.63
2018-04-18T20:01:25.145Z,4.25
2018-04-18T20:03:53.056Z,4.33
2018-04-18T20:06:20.717Z,4.07
2018-04-18T20:08:48.458Z,4.17
2018-04-18T20:11:16.026Z,3.37
2018-04-18T20:13:43.554Z,4.00
2018-04-18T20:16:11.263Z,3.67
2018-04-18T20:18:39.934Z,4.37
2018-04-18T20:21:07.486Z,4.10
2018-04-18T20:23:35.011Z,4.70
2018-04-18T20:26:02.631Z,4.57
2018-04-18T20:28:30.186Z,4.17
2018-04-18T20:30:57.718Z,4.50
2018-04-18T20:33:25.520Z,4.10
2018-04-18T20:35:53.073Z,4.37
2018-04-18T20:38:20.626Z,4.57
2018-04-18T20:40:48.598Z,4.20
2018-04-18T20:43:16.266Z,4.60
2018-04-18T20:45:43.838Z,4.00
2018-04-18T20:48:11.415Z,4.37
2018-04-18T20:50:38.942Z,4.30
2018-04-18T20:53:06.907Z,4.32
2018-04-18T20:55:34.451Z,4.47
2018-04-18T20:58:02.049Z,4.17
2018-04-18T21:00:29.694Z,4.65
2018-04-18T21:02:57.246Z,4.60
2018-04-18T21:05:24.798Z,4.27
2018-04-18T21:07:52.376Z,4.57
2018-04-18T21:10:19.877Z,4.80
2018-04-18T21:12:47.433Z,4.67
2018-04-18T21:15:14.255Z,4.67
2018-04-18T21:17:41.812Z,4.67
2018-04-18T21:20:09.414Z,4.63
2018-04-18T21:22:36.961Z,4.73
2018-04-18T21:25:04.513Z,3.50
2018-04-18T21:27:32.098Z,4.47
2018-04-18T21:29:59.649Z,4.47
2018-04-18T21:32:27.224Z,4.13
2018-04-18T21:34:54.753Z,4.37
2018-04-18T21:37:22.303Z,4.50
2018-04-18T21:39:49.831Z,5.87
2018-04-18T21:42:17.409Z,5.20
2018-04-18T21:44:44.945Z,6.07
2018-04-18T21:47:14.489Z,6.63
2018-04-18T21:49:42.418Z,6.30
2018-04-18T21:52:10.616Z,6.90
2018-04-18T21:54:38.674Z,5.70
2018-04-18T21:57:06.199Z,5.87
2018-04-18T21:59:33.748Z,5.53
2018-04-18T22:02:01.552Z,5.20
2018-04-18T22:04:29.156Z,5.10
2018-04-18T22:06:57.072Z,5.43
2018-04-18T22:09:24.665Z,5.63
2018-04-18T22:11:52.667Z,5.57
2018-04-18T22:14:20.855Z,5.80
2018-04-18T22:16:49.933Z,5.25
2018-04-18T22:19:17.811Z,4.97
2018-04-18T22:21:46.320Z,5.53
2018-04-18T22:24:14.422Z,5.50
2018-04-18T22:26:42.531Z,5.60
2018-04-18T22:29:10.174Z,5.90
2018-04-18T22:31:38.298Z,5.77
2018-04-18T22:34:06.487Z,4.60
2018-04-18T22:36:34.134Z,5.10
2018-04-18T22:39:01.732Z,5.23
2018-04-18T22:41:29.257Z,5.22
2018-04-18T22:43:56.836Z,5.22
2018-04-18T22:46:24.371Z,4.83
2018-04-18T22:48:52.042Z,5.10
2018-04-18T22:51:20.106Z,5.28
2018-04-18T22:53:47.675Z,5.13
2018-04-18T22:56:19.470Z,5.13
2018-04-18T22:58:48.877Z,5.13
2018-04-18T23:01:16.731Z,4.90
2018-04-18T23:03:44.484Z,5.33
2018-04-18T23:06:13.053Z,5.57
2018-04-18T23:08:41.111Z,5.13
2018-04-18T23:11:08.795Z,5.63
2018-04-18T23:13:36.911Z,5.27
2018-04-18T23:16:08.237Z,4.87
2018-04-18T23:18:38.217Z,5.30
2018-04-18T23:21:06.781Z,5.33
2018-04-18T23:23:37.803Z,5.27
2018-04-18T23:26:05.911Z,5.80
2018-04-18T23:28:33.706Z,5.23
2018-04-18T23:31:01.657Z,5.13
2018-04-18T23:33:29.610Z,5.07
2018-04-18T23:35:57.280Z,5.40
2018-04-18T23:38:26.483Z,5.22
2018-04-18T23:40:55.740Z,5.73
2018-04-18T23:43:23.265Z,5.43
2018-04-18T23:45:50.840Z,5.40
2018-04-18T23:48:18.396Z,5.47
2018-04-18T23:50:45.975Z,6.00
2018-04-18T23:53:13.529Z,5.40
2018-04-18T23:55:41.086Z,5.93
2018-04-18T23:58:08.606Z,5.60
